Time;durP1;ratioP1;P1;durP2;ratioP2;P2;SDS_P1;SDS_P2;PMS_P1;PMS_P2;Temp;Humidity;BMP_temperature;BMP_pressure;BME280_temperature;BME280_humidity;BME280_pressure;Samples;Min_cycle;Max_cycle;Signal;HPM_P1;HPM_P2
2022/05/11 00:01:22;;;;;;;5.93;2.30;;;;;;;20.48;40.95;100339.72;5095573;28;20040;-89
2022/05/11 00:03:47;;;;;;;11.35;2.80;;;;;;;20.39;41.10;100340.00;5095458;28;20107;-90
2022/05/11 00:06:13;;;;;;;8.73;2.40;;;;;;;20.33;41.25;100340.78;5095435;28;20708;-77
2022/05/11 00:08:38;;;;;;;12.18;2.55;;;;;;;20.25;41.58;100337.16;5095736;28;20497;-90
2022/05/11 00:11:05;;;;;;;8.07;2.20;;;;;;;20.20;41.25;100332.00;5095729;28;20035;-77
2022/05/11 00:13:31;;;;;;;8.07;2.65;;;;;;;20.36;40.85;100338.03;5095316;28;20017;-88
2022/05/11 00:15:57;;;;;;;8.40;3.10;;;;;;;20.38;40.78;100329.31;5095396;28;20122;-77
2022/05/11 00:18:23;;;;;;;8.88;2.70;;;;;;;20.32;40.92;100322.53;5095661;28;20024;-76
2022/05/11 00:20:48;;;;;;;10.23;2.30;;;;;;;20.31;40.93;100329.28;5095254;28;20036;-90
2022/05/11 00:23:14;;;;;;;8.80;2.33;;;;;;;20.27;41.02;100318.19;5095359;28;20058;-77
2022/05/11 00:25:39;;;;;;;5.68;2.03;;;;;;;20.32;40.62;100326.09;5095203;28;20021;-77
2022/05/11 00:28:05;;;;;;;5.95;2.08;;;;;;;20.35;40.54;100324.56;5046812;28;1400433;-76
2022/05/11 00:30:31;;;;;;;8.25;2.10;;;;;;;20.28;40.65;100316.19;5096198;28;20036;-77
2022/05/11 00:32:59;;;;;;;7.70;2.03;;;;;;;20.26;40.50;100319.38;5096234;28;20020;-77
2022/05/11 00:35:30;;;;;;;5.90;1.90;;;;;;;20.27;40.55;100323.72;5096246;28;20089;-86
2022/05/11 00:37:56;;;;;;;6.40;1.92;;;;;;;20.35;40.31;100319.78;5095171;28;20111;-91
2022/05/11 00:40:24;;;;;;;7.47;2.28;;;;;;;20.19;40.46;100311.78;5095888;28;20032;-76
2022/05/11 00:42:49;;;;;;;9.48;2.50;;;;;;;20.00;41.13;100306.53;5096173;28;20178;-90
2022/05/11 00:45:16;;;;;;;6.07;1.88;;;;;;;20.18;40.50;100309.41;5096051;28;20482;-82
2022/05/11 00:47:48;;;;;;;6.40;1.92;;;;;;;20.09;40.64;100308.94;5096162;28;20028;-87
2022/05/11 00:50:24;;;;;;;6.32;1.95;;;;;;;20.31;40.17;100299.56;5095811;28;20059;-77
2022/05/11 00:52:54;;;;;;;8.68;2.42;;;;;;;20.24;40.38;100296.75;5096127;28;20020;-91
2022/05/11 00:55:24;;;;;;;7.97;2.00;;;;;;;20.23;40.27;100289.59;5096045;28;20450;-90
2022/05/11 00:58:01;;;;;;;5.35;2.15;;;;;;;20.06;40.36;100276.44;5096063;28;20461;-90
2022/05/11 01:00:27;;;;;;;6.05;1.80;;;;;;;20.16;40.20;100290.38;5095501;28;20032;-89
2022/05/11 01:02:59;;;;;;;10.65;2.35;;;;;;;20.03;40.49;100280.03;5095622;28;20024;-77
2022/05/11 01:05:25;;;;;;;5.70;2.10;;;;;;;20.12;40.37;100266.59;5095216;28;20051;-76
2022/05/11 01:07:54;;;;;;;8.15;2.20;;;;;;;20.07;40.48;100272.50;5095696;28;20099;-77
2022/05/11 01:10:19;;;;;;;10.27;2.28;;;;;;;20.20;40.20;100268.22;5095629;28;20028;-77
2022/05/11 01:12:49;;;;;;;8.07;1.98;;;;;;;20.23;40.20;100264.63;5095767;28;20032;-90
2022/05/11 01:15:18;;;;;;;5.38;1.85;;;;;;;20.08;40.12;100274.09;5095549;28;20024;-90
2022/05/11 01:17:44;;;;;;;5.93;2.47;;;;;;;20.31;40.11;100257.94;5095519;28;20034;-88
2022/05/11 01:20:19;;;;;;;8.73;2.08;;;;;;;20.13;40.33;100251.53;5095319;28;20062;-89
2022/05/11 01:23:00;;;;;;;6.18;1.80;;;;;;;20.24;40.19;100246.81;5094987;28;20103;-76
2022/05/11 01:25:27;;;;;;;8.50;2.08;;;;;;;20.26;39.64;100243.66;5095315;28;20442;-89
2022/05/11 01:28:11;;;;;;;4.20;2.05;;;;;;;20.35;39.69;100246.88;5095060;28;20448;-77
2022/05/11 01:30:39;;;;;;;9.70;1.90;;;;;;;20.21;39.95;100248.41;5094643;28;20482;-76
2022/05/11 01:33:06;;;;;;;6.97;1.98;;;;;;;20.16;40.24;100243.22;5095104;28;20069;-83
2022/05/11 01:35:53;;;;;;;5.22;1.77;;;;;;;20.17;39.94;100244.00;5093721;28;20390;-76
2022/05/11 01:38:28;;;;;;;8.18;2.08;;;;;;;20.05;40.15;100234.06;5094809;28;20028;-89
2022/05/11 01:40:54;;;;;;;5.47;1.90;;;;;;;20.04;40.11;100245.56;5095085;28;20474;-77
2022/05/11 01:43:24;;;;;;;10.30;2.10;;;;;;;20.05;40.24;100238.81;5095115;28;20065;-77
2022/05/11 01:45:49;;;;;;;10.63;2.03;;;;;;;19.85;40.55;100241.88;5095049;28;20020;-76
2022/05/11 01:48:15;;;;;;;7.97;1.70;;;;;;;19.99;40.25;100245.91;5095106;28;20032;-76
2022/05/11 01:50:42;;;;;;;7.72;2.33;;;;;;;20.14;39.85;100233.69;5094499;28;20024;-76
2022/05/11 01:53:08;;;;;;;6.88;1.55;;;;;;;20.04;40.17;100231.69;5094713;28;20066;-76
2022/05/11 01:55:34;;;;;;;8.98;2.10;;;;;;;20.11;39.87;100229.75;5093249;28;20494;-77
2022/05/11 01:58:01;;;;;;;9.55;2.20;;;;;;;20.00;40.18;100228.09;5094975;28;20031;-78
2022/05/11 02:00:26;;;;;;;6.93;2.30;;;;;;;19.87;40.39;100233.16;5094178;28;20484;-77
2022/05/11 02:02:52;;;;;;;8.18;2.13;;;;;;;19.90;40.50;100247.06;5094131;28;20122;-78
2022/05/11 02:08:03;;;;;;;5.93;1.77;;;;;;;20.03;40.25;100224.56;5095008;28;20127;-76
2022/05/11 02:10:28;;;;;;;9.65;2.60;;;;;;;19.92;40.29;100224.50;5094096;28;20482;-76
2022/05/11 02:12:57;;;;;;;11.07;2.58;;;;;;;19.88;40.56;100230.03;5093857;28;20102;-77
2022/05/11 02:15:24;;;;;;;8.48;2.28;;;;;;;19.93;40.55;100217.75;5094540;28;20077;-90
2022/05/11 02:17:49;;;;;;;9.68;2.78;;;;;;;20.01;40.32;100219.38;5093669;28;20047;-84
2022/05/11 02:20:17;;;;;;;8.75;2.55;;;;;;;19.98;40.39;100222.94;5094418;28;20067;-86
2022/05/11 02:22:43;;;;;;;8.32;2.25;;;;;;;19.83;40.67;100210.97;5093403;28;20035;-83
2022/05/11 02:25:10;;;;;;;9.35;2.05;;;;;;;19.75;40.78;100214.91;5093963;28;20032;-91
2022/05/11 02:27:36;;;;;;;12.95;3.38;;;;;;;19.80;40.67;100214.53;5094051;28;20478;-76
2022/05/11 02:30:03;;;;;;;11.30;3.42;;;;;;;19.77;40.83;100220.84;5094082;28;20031;-76
2022/05/11 02:32:29;;;;;;;8.18;2.30;;;;;;;19.70;41.00;100212.50;5094099;28;20032;-76
2022/05/11 02:35:13;;;;;;;6.10;2.53;;;;;;;19.56;41.27;100212.38;5092635;28;20077;-90
2022/05/11 02:37:43;;;;;;;8.05;2.53;;;;;;;19.52;41.43;100208.78;5093975;28;20535;-76
2022/05/11 02:40:10;;;;;;;8.57;2.63;;;;;;;19.70;40.96;100211.69;5093733;28;20024;-76
2022/05/11 02:42:36;;;;;;;7.10;2.20;;;;;;;19.92;40.49;100214.19;5093631;28;20056;-77
2022/05/11 02:45:04;;;;;;;11.70;2.70;;;;;;;19.98;40.28;100211.06;5094077;28;20028;-76
2022/05/11 02:47:29;;;;;;;8.63;2.08;;;;;;;19.57;41.22;100219.53;5093732;28;20115;-76
2022/05/11 02:49:55;;;;;;;10.02;2.78;;;;;;;19.58;41.13;100216.41;5093796;28;20066;-77
2022/05/11 02:52:21;;;;;;;6.32;2.40;;;;;;;19.35;41.64;100219.38;5093928;28;20028;-91
2022/05/11 02:54:48;;;;;;;12.95;2.65;;;;;;;19.49;41.27;100223.41;5093682;28;20047;-89
2022/05/11 02:57:15;;;;;;;5.97;2.05;;;;;;;19.51;41.21;100221.06;5092738;28;20024;-91
2022/05/11 02:59:41;;;;;;;11.88;2.60;;;;;;;19.54;41.21;100223.84;5093403;28;20035;-90
2022/05/11 03:02:06;;;;;;;7.20;2.25;;;;;;;19.47;41.20;100215.47;5093166;28;20479;-90
2022/05/11 03:04:32;;;;;;;9.48;2.30;;;;;;;19.46;41.39;100213.09;5093920;28;20027;-76
2022/05/11 03:06:58;;;;;;;11.18;2.65;;;;;;;19.45;41.34;100215.09;5092448;28;20123;-76
2022/05/11 03:09:24;;;;;;;10.90;2.25;;;;;;;19.49;40.95;100220.63;5093513;28;20533;-92
2022/05/11 03:11:49;;;;;;;11.93;3.33;;;;;;;19.45;41.32;100228.94;5092212;28;20116;-90
2022/05/11 03:14:15;;;;;;;8.40;2.40;;;;;;;19.51;41.04;100223.84;5092293;28;20024;-76
2022/05/11 03:16:41;;;;;;;11.60;2.28;;;;;;;19.52;41.15;100233.75;5093239;28;20028;-91
2022/05/11 03:19:07;;;;;;;8.20;2.75;;;;;;;19.54;41.01;100231.38;5093011;28;20073;-77
2022/05/11 03:21:33;;;;;;;8.32;2.72;;;;;;;19.48;41.16;100233.69;5092641;28;20036;-76
2022/05/11 03:24:00;;;;;;;6.95;2.67;;;;;;;19.52;41.16;100240.06;5093255;28;20580;-76
2022/05/11 03:26:26;;;;;;;8.48;2.42;;;;;;;19.54;41.28;100254.31;5093751;28;20024;-90
2022/05/11 03:28:52;;;;;;;8.02;2.90;;;;;;;19.62;41.06;100249.66;5092336;28;20107;-77
2022/05/11 03:31:18;;;;;;;9.30;3.00;;;;;;;19.63;41.05;100251.25;5092936;28;20112;-90
2022/05/11 03:36:29;;;;;;;9.52;1.98;;;;;;;19.90;40.55;100244.28;5093626;28;20386;-90
2022/05/11 03:38:54;;;;;;;8.32;2.42;;;;;;;19.88;40.53;100246.66;5093147;28;20016;-76
2022/05/11 03:41:20;;;;;;;11.98;2.45;;;;;;;19.76;41.15;100249.75;5092926;28;20099;-77
2022/05/11 03:43:46;;;;;;;6.93;2.75;;;;;;;19.88;40.93;100246.66;5093213;28;20050;-76
2022/05/11 03:46:12;;;;;;;9.88;3.20;;;;;;;20.00;40.58;100253.84;5093416;28;20481;-77
2022/05/11 03:48:37;;;;;;;7.68;2.55;;;;;;;19.92;40.86;100249.44;5093002;28;20048;-79
2022/05/11 03:51:04;;;;;;;11.50;3.00;;;;;;;19.88;40.71;100254.97;5092946;28;20077;-77
2022/05/11 03:53:31;;;;;;;7.72;2.70;;;;;;;19.87;40.78;100255.34;5093126;28;20111;-76
2022/05/11 03:55:57;;;;;;;10.23;3.08;;;;;;;19.79;41.08;100260.06;5092911;28;20154;-76
2022/05/11 03:58:23;;;;;;;9.88;2.50;;;;;;;19.73;41.23;100258.06;5093026;28;20111;-76
2022/05/11 04:00:48;;;;;;;10.68;2.83;;;;;;;19.92;40.44;100261.31;5092811;28;20476;-81
2022/05/11 04:03:14;;;;;;;13.80;3.47;;;;;;;19.89;40.68;100264.88;5092909;28;20471;-76
2022/05/11 04:05:39;;;;;;;10.27;3.20;;;;;;;19.80;41.06;100261.66;5092606;28;20141;-78
2022/05/11 04:08:06;;;;;;;8.82;2.83;;;;;;;20.04;40.32;100264.97;5092951;28;20479;-76
2022/05/11 04:10:32;;;;;;;10.80;2.90;;;;;;;19.97;40.87;100265.72;5092549;28;20020;-77
2022/05/11 04:13:00;;;;;;;15.70;3.47;;;;;;;19.99;40.52;100260.56;5092692;28;20028;-77
2022/05/11 04:15:26;;;;;;;19.13;3.00;;;;;;;19.94;40.82;100256.19;5092385;28;20073;-90
2022/05/11 04:17:51;;;;;;;10.52;3.10;;;;;;;19.95;40.76;100252.25;5092926;28;20028;-76
2022/05/11 04:20:19;;;;;;;10.07;2.42;;;;;;;19.91;40.75;100250.63;5092513;28;20099;-90
2022/05/11 04:22:45;;;;;;;8.30;2.92;;;;;;;19.90;40.90;100262.91;5092818;28;20052;-77
2022/05/11 04:25:15;;;;;;;11.82;2.90;;;;;;;19.84;40.80;100256.94;5092367;28;20065;-77
2022/05/11 04:27:41;;;;;;;14.48;2.97;;;;;;;19.79;40.94;100254.50;5052214;28;20446;-90
2022/05/11 04:30:07;;;;;;;15.27;3.53;;;;;;;19.78;41.08;100252.13;5052314;28;20061;-91
2022/05/11 04:32:33;;;;;;;6.60;1.95;;;;;;;19.80;41.10;100253.34;5052397;28;20063;-79
2022/05/11 04:34:58;;;;;;;9.65;2.38;;;;;;;19.71;41.13;100252.88;5052298;28;20479;-89
2022/05/11 04:37:24;;;;;;;13.60;2.25;;;;;;;19.71;41.14;100247.34;5089087;28;20103;-77
2022/05/11 04:39:50;;;;;;;14.68;3.00;;;;;;;19.67;41.37;100252.06;5092875;28;20024;-90
2022/05/11 04:42:16;;;;;;;11.57;3.40;;;;;;;19.68;41.29;100253.66;5096104;28;20024;-77
2022/05/11 04:44:42;;;;;;;9.10;2.25;;;;;;;19.66;41.51;100245.75;5096219;28;20024;-77
2022/05/11 04:47:10;;;;;;;29.60;4.78;;;;;;;19.72;41.37;100248.91;5096476;28;20115;-76
2022/05/11 04:49:37;;;;;;;14.90;3.17;;;;;;;19.74;41.30;100252.13;5095802;28;20077;-90
2022/05/11 04:52:09;;;;;;;12.00;3.70;;;;;;;19.75;41.37;100241.81;5094875;28;20069;-89
2022/05/11 04:54:39;;;;;;;13.68;3.00;;;;;;;19.77;41.31;100242.22;5095987;28;20032;-76
2022/05/11 04:57:06;;;;;;;11.90;2.55;;;;;;;19.76;41.38;100237.88;5095695;28;20026;-76
2022/05/11 04:59:34;;;;;;;10.40;2.95;;;;;;;19.94;40.92;100236.78;5095898;28;20134;-77
2022/05/11 05:02:02;;;;;;;8.50;3.03;;;;;;;19.92;41.13;100233.59;5094660;28;20052;-77
2022/05/11 05:04:28;;;;;;;10.07;3.17;;;;;;;19.98;41.05;100236.00;5095522;28;20394;-90
2022/05/11 05:06:54;;;;;;;10.75;2.45;;;;;;;19.88;41.26;100227.25;5094474;28;20054;-89
2022/05/11 05:09:21;;;;;;;10.93;2.55;;;;;;;20.03;41.09;100236.44;5094548;28;20021;-77
2022/05/11 05:11:47;;;;;;;10.20;2.47;;;;;;;20.05;41.07;100222.19;5096030;28;20027;-77
2022/05/11 05:14:12;;;;;;;10.77;2.90;;;;;;;19.93;41.41;100221.31;5095770;28;20024;-90
2022/05/11 05:16:39;;;;;;;6.90;2.92;;;;;;;19.86;41.64;100228.81;5095117;28;20530;-77
2022/05/11 05:19:05;;;;;;;9.50;2.65;;;;;;;19.87;41.76;100222.88;5095411;28;20024;-76
2022/05/11 05:21:31;;;;;;;10.82;2.83;;;;;;;19.90;41.57;100215.78;5095550;28;20081;-89
2022/05/11 05:23:58;;;;;;;9.27;2.67;;;;;;;19.92;41.43;100233.59;5093909;28;20020;-76
2022/05/11 05:26:24;;;;;;;9.77;2.50;;;;;;;19.97;41.59;100224.13;5094990;28;20028;-89
2022/05/11 05:31:34;;;;;;;8.30;2.08;;;;;;;20.04;41.47;100224.16;5095388;28;20035;-76
2022/05/11 05:34:00;;;;;;;9.00;2.45;;;;;;;20.14;41.12;100228.94;5094994;28;20386;-75
2022/05/11 05:36:31;;;;;;;9.82;2.22;;;;;;;20.19;41.19;100231.34;5094775;28;20025;-76
2022/05/11 05:38:59;;;;;;;13.98;3.53;;;;;;;20.22;41.09;100232.53;5095043;28;20080;-87
2022/05/11 05:41:26;;;;;;;10.85;2.65;;;;;;;20.25;41.13;100228.97;5095026;28;20031;-76
2022/05/11 05:43:53;;;;;;;10.57;2.78;;;;;;;20.32;41.12;100223.44;5095365;28;20027;-81
2022/05/11 05:46:19;;;;;;;17.30;3.42;;;;;;;20.44;40.61;100227.91;5094635;28;20508;-76
2022/05/11 05:48:45;;;;;;;12.30;3.15;;;;;;;20.32;40.98;100223.44;5094684;28;20051;-76
2022/05/11 05:51:14;;;;;;;16.02;4.40;;;;;;;20.49;40.58;100221.97;5093562;28;20505;-76
2022/05/11 05:53:40;;;;;;;7.00;2.90;;;;;;;20.46;40.79;100219.97;5094420;28;20024;-90
2022/05/11 05:56:07;;;;;;;16.50;2.97;;;;;;;20.54;40.35;100226.31;5094436;28;20505;-89
2022/05/11 05:58:33;;;;;;;17.38;4.88;;;;;;;20.42;40.54;100224.69;5093697;28;20475;-77
2022/05/11 06:00:59;;;;;;;15.52;3.53;;;;;;;20.42;40.55;100219.94;5094613;28;20038;-77
2022/05/11 06:03:28;;;;;;;17.65;3.42;;;;;;;20.40;40.76;100222.31;5094805;28;20028;-76
2022/05/11 06:05:54;;;;;;;11.77;2.70;;;;;;;20.46;40.75;100215.19;5093912;28;20079;-76
2022/05/11 06:08:21;;;;;;;8.00;2.35;;;;;;;20.63;40.71;100219.22;5094653;28;20478;-90
2022/05/11 06:10:53;;;;;;;8.50;2.78;;;;;;;20.90;40.47;100227.97;5094556;28;20086;-89
2022/05/11 06:13:23;;;;;;;7.40;2.20;;;;;;;21.08;40.34;100218.84;5094650;28;20432;-76
2022/05/11 06:15:54;;;;;;;8.38;2.92;;;;;;;21.16;40.16;100224.03;5094336;28;20115;-77
2022/05/11 06:18:21;;;;;;;8.77;2.10;;;;;;;21.25;39.96;100226.41;5094129;28;20064;-77
2022/05/11 06:20:51;;;;;;;16.70;2.97;;;;;;;21.27;40.05;100224.03;5094100;28;20118;-76
2022/05/11 06:23:21;;;;;;;21.58;3.92;;;;;;;21.34;39.84;100221.25;5094048;28;20016;-76
2022/05/11 06:25:50;;;;;;;15.65;3.15;;;;;;;21.23;40.00;100229.56;5093871;28;20111;-77
2022/05/11 06:28:17;;;;;;;11.30;2.80;;;;;;;21.32;39.76;100227.22;5093466;28;20052;-77
2022/05/11 06:30:43;;;;;;;13.88;3.55;;;;;;;21.41;39.63;100223.25;5094666;28;20032;-89
2022/05/11 06:33:08;;;;;;;9.80;3.08;;;;;;;21.42;39.58;100224.84;5093881;28;20024;-85
2022/05/11 06:35:34;;;;;;;10.00;3.30;;;;;;;21.60;39.33;100220.81;5095352;28;20024;-87
2022/05/11 06:38:05;;;;;;;13.80;3.17;;;;;;;21.48;39.66;100229.59;5094447;28;20040;-84
2022/05/11 06:40:31;;;;;;;19.77;4.07;;;;;;;21.71;39.34;100228.34;5093735;28;20481;-89
2022/05/11 06:42:57;;;;;;;15.48;3.17;;;;;;;21.80;39.47;100229.53;5093853;28;20035;-75
2022/05/11 06:45:23;;;;;;;22.27;4.47;;;;;;;21.98;39.08;100237.78;5093801;28;20486;-75
2022/05/11 06:47:49;;;;;;;17.73;3.72;;;;;;;21.98;39.16;100239.78;5091019;28;20020;-75
2022/05/11 06:50:16;;;;;;;11.40;2.78;;;;;;;22.02;38.98;100238.59;5071691;28;20024;-86
2022/05/11 06:52:42;;;;;;;12.75;2.72;;;;;;;21.99;38.75;100241.38;5069865;28;20591;-74
2022/05/11 07:00:36;;;;;;;7.38;2.00;;;;;;;21.89;38.72;100240.22;5093369;28;20043;-75
2022/05/11 07:03:04;;;;;;;15.15;2.97;;;;;;;21.81;38.66;100242.22;5074377;28;20024;-84
2022/05/11 07:05:32;;;;;;;15.93;2.90;;;;;;;22.10;38.16;100240.19;5062607;28;21063;-75
2022/05/11 07:07:59;;;;;;;14.52;4.30;;;;;;;22.19;38.08;100245.31;5064791;28;20082;-74
2022/05/11 07:10:24;;;;;;;15.10;4.80;;;;;;;22.35;37.79;100253.97;5064505;28;20099;-74
2022/05/11 07:12:50;;;;;;;9.57;2.88;;;;;;;22.14;38.35;100259.63;5061370;28;20028;-74
2022/05/11 07:15:19;;;;;;;15.80;3.45;;;;;;;22.39;37.93;100270.69;5067776;28;20025;-75
2022/05/11 07:17:56;;;;;;;20.13;3.80;;;;;;;22.18;38.28;100262.41;5076606;28;20098;-75
2022/05/11 07:20:29;;;;;;;10.15;2.63;;;;;;;22.04;38.73;100266.78;5081860;28;20036;-76
2022/05/11 07:22:55;;;;;;;8.15;1.88;;;;;;;22.28;38.07;100278.25;5072964;28;20020;-75
2022/05/11 07:25:24;;;;;;;12.88;2.67;;;;;;;22.13;38.37;100283.09;5081274;28;20099;-88
2022/05/11 07:27:50;;;;;;;51.33;6.07;;;;;;;22.11;38.43;100280.72;5092389;28;20036;-89
2022/05/11 07:30:19;;;;;;;13.38;4.30;;;;;;;22.13;38.30;100294.22;5092866;28;20132;-75
2022/05/11 07:32:45;;;;;;;11.10;3.20;;;;;;;22.13;38.14;100286.66;5092700;28;20127;-75
2022/05/11 07:35:11;;;;;;;9.85;2.60;;;;;;;22.05;38.53;100287.84;5091894;28;20530;-74
2022/05/11 07:37:37;;;;;;;20.55;3.25;;;;;;;22.12;38.22;100284.28;5091315;28;20032;-74
2022/05/11 07:40:05;;;;;;;9.63;3.00;;;;;;;21.91;38.47;100301.00;5092806;28;20020;-75
2022/05/11 07:42:31;;;;;;;7.60;2.50;;;;;;;22.12;38.22;100301.78;5092861;28;20016;-75
2022/05/11 07:44:57;;;;;;;8.45;2.38;;;;;;;21.80;38.77;100306.59;5092937;28;20078;-87
2022/05/11 07:47:22;;;;;;;12.43;2.95;;;;;;;21.97;38.52;100305.75;5092601;28;20024;-75
2022/05/11 07:49:48;;;;;;;7.93;2.22;;;;;;;21.99;38.56;100303.38;5087539;28;20020;-75
2022/05/11 07:52:14;;;;;;;9.77;2.63;;;;;;;21.62;39.23;100308.59;5072332;28;20073;-75
2022/05/11 07:54:41;;;;;;;13.40;2.50;;;;;;;22.00;38.35;100309.75;5092559;28;20063;-75
2022/05/11 07:59:52;;;;;;;7.32;2.42;;;;;;;21.79;39.40;100321.69;5093405;28;20077;-80
2022/05/11 08:02:18;;;;;;;7.25;2.50;;;;;;;22.02;39.20;100329.59;5092428;28;20474;-74
2022/05/11 08:04:44;;;;;;;11.23;3.17;;;;;;;22.01;39.47;100328.81;5092783;28;20024;-90
2022/05/11 08:07:13;;;;;;;10.50;2.90;;;;;;;21.84;40.08;100324.88;5091248;28;20038;-76
2022/05/11 08:09:38;;;;;;;12.73;3.70;;;;;;;21.87;40.57;100323.28;5070746;28;20020;-77
2022/05/11 08:12:04;;;;;;;10.05;2.55;;;;;;;21.99;40.21;100327.59;5062516;28;20028;-89
2022/05/11 08:14:31;;;;;;;11.00;3.15;;;;;;;22.14;40.14;100318.88;5061731;28;20148;-76
2022/05/11 08:16:56;;;;;;;17.40;3.35;;;;;;;22.26;40.21;100319.63;5068053;28;20028;-76
2022/05/11 08:19:26;;;;;;;16.42;3.17;;;;;;;22.12;40.60;100324.03;5066797;28;20032;-79
2022/05/11 08:21:52;;;;;;;9.52;3.22;;;;;;;22.31;40.51;100338.69;5064576;28;20040;-80
2022/05/11 08:24:18;;;;;;;13.32;3.08;;;;;;;22.15;41.24;100334.38;5066537;28;20479;-76
2022/05/11 08:26:46;;;;;;;8.52;2.50;;;;;;;22.50;40.81;100331.84;5071241;28;20064;-79
2022/05/11 08:33:19;;;;;;;9.43;3.00;;;;;;;22.08;41.92;100339.94;5067191;28;20044;-87
2022/05/11 08:34:43;;;;;;;6.72;2.00;;;;;;;22.64;41.01;100340.16;5064898;28;21272;-89
2022/05/11 08:37:09;;;;;;;6.07;2.05;;;;;;;22.87;40.49;100345.25;5066802;28;20032;-90
2022/05/11 08:39:35;;;;;;;7.10;2.38;;;;;;;22.80;40.41;100346.03;5066472;28;20024;-89
2022/05/11 08:42:02;;;;;;;8.68;2.05;;;;;;;22.64;40.90;100356.88;5067478;28;20024;-89
2022/05/11 08:44:34;;;;;;;11.18;2.75;;;;;;;23.09;39.69;100354.28;5067535;28;20379;-80
2022/05/11 08:47:08;;;;;;;5.53;2.03;;;;;;;23.14;39.84;100354.66;5065753;28;20021;-76
2022/05/11 08:49:52;;;;;;;7.57;2.40;;;;;;;22.96;38.31;100359.50;5065593;28;20033;-76
2022/05/11 08:52:40;;;;;;;7.25;1.60;;;;;;;22.96;38.74;100363.09;5064508;28;20053;-76
2022/05/11 08:55:23;;;;;;;6.35;1.60;;;;;;;22.93;38.23;100366.69;5064654;28;20021;-89
2022/05/11 08:57:49;;;;;;;4.57;1.67;;;;;;;23.16;38.44;100357.81;5066259;28;20364;-76
2022/05/11 09:00:17;;;;;;;4.40;1.10;;;;;;;23.34;37.94;100368.03;5065922;28;20039;-76
2022/05/11 09:03:00;;;;;;;2.50;1.30;;;;;;;23.42;36.93;100372.38;5068152;28;20060;-76
2022/05/11 09:05:28;;;;;;;4.40;1.67;;;;;;;23.27;36.69;100374.47;5066882;28;20497;-78
2022/05/11 09:07:56;;;;;;;7.35;1.60;;;;;;;23.23;36.42;100373.69;5065818;28;20489;-88
2022/05/11 09:10:25;;;;;;;9.93;1.75;;;;;;;23.56;35.69;100374.25;5066056;28;20042;-76
2022/05/11 09:12:53;;;;;;;5.60;1.60;;;;;;;23.36;36.01;100379.59;5062461;28;20024;-87
2022/05/11 09:15:20;;;;;;;13.80;2.47;;;;;;;23.23;35.90;100368.91;5067737;28;20692;-89
2022/05/11 09:17:45;;;;;;;12.98;2.17;;;;;;;23.57;35.39;100382.22;5063305;28;20021;-76
2022/05/11 09:20:14;;;;;;;9.13;2.63;;;;;;;23.43;36.12;100379.56;5062364;28;20032;-77
2022/05/11 09:22:54;;;;;;;6.97;2.60;;;;;;;23.77;35.24;100393.66;5062924;28;20017;-83
2022/05/11 09:25:24;;;;;;;2.97;0.95;;;;;;;23.65;35.09;100394.13;5065599;28;20062;-78
2022/05/11 09:27:51;;;;;;;5.95;1.63;;;;;;;23.85;34.51;100392.38;5061987;28;20048;-90
2022/05/11 09:30:23;;;;;;;3.08;1.05;;;;;;;23.78;34.23;100390.44;5063913;28;20529;-78
2022/05/11 09:32:53;;;;;;;5.05;1.73;;;;;;;24.19;33.93;100391.69;5065409;28;20017;-83
2022/05/11 09:35:24;;;;;;;;;;;;;;;24.06;33.86;100396.97;5067772;28;20074;-94
2022/05/11 09:38:33;;;;;;;5.82;1.50;;;;;;;24.18;33.68;100392.88;5062643;28;20003;-77
2022/05/11 09:41:19;;;;;;;5.03;1.70;;;;;;;24.63;33.49;100394.38;5065033;28;20390;-93
2022/05/11 09:43:50;;;;;;;6.53;1.50;;;;;;;24.78;33.06;100389.41;5062313;28;20115;-84
2022/05/11 09:46:19;;;;;;;9.48;1.60;;;;;;;24.62;33.45;100403.19;5064664;28;20494;-77
2022/05/11 09:49:13;;;;;;;17.73;3.10;;;;;;;24.79;33.11;100391.03;5063152;28;20028;-93
2022/05/11 09:51:38;;;;;;;5.15;1.67;;;;;;;24.75;33.73;100400.66;5052003;28;20499;-79
2022/05/11 09:54:20;;;;;;;4.07;1.13;;;;;;;24.27;32.76;100402.34;5068281;28;20063;-92
2022/05/11 09:56:49;;;;;;;4.53;1.10;;;;;;;24.73;32.68;100403.88;5075130;28;20031;-94
2022/05/11 09:59:39;;;;;;;9.95;3.20;;;;;;;24.42;33.02;100413.41;5074173;28;20459;-77
2022/05/11 10:02:23;;;;;;;2.30;0.98;;;;;;;24.51;33.24;100422.09;5073607;28;20032;-95
2022/05/11 10:05:28;;;;;;;13.75;2.63;;;;;;;24.08;33.17;100419.69;5064537;28;20017;-77
2022/05/11 10:08:05;;;;;;;17.83;4.72;;;;;;;24.44;33.07;100422.16;5065213;28;20048;-93
2022/05/11 10:10:59;;;;;;;23.63;4.20;;;;;;;24.73;33.30;100422.63;5066832;28;20024;-81
2022/05/11 10:13:32;;;;;;;6.32;1.90;;;;;;;24.77;32.95;100435.34;5064984;28;20021;-91
2022/05/11 10:22:35;;;;;;;9.82;2.50;;;;;;;25.21;31.60;100430.03;5065150;28;20434;-91
2022/05/11 10:25:24;;;;;;;11.80;2.97;;;;;;;25.22;31.58;100437.19;5066385;28;20032;-95
2022/05/11 10:28:02;;;;;;;7.82;2.58;;;;;;;25.06;31.66;100447.00;5063603;28;20043;-92
2022/05/11 10:30:49;;;;;;;14.73;6.57;;;;;;;24.89;30.66;100445.97;5061147;28;20082;-92
2022/05/11 10:33:45;;;;;;;9.07;3.47;;;;;;;25.05;31.08;100444.63;5056346;28;20036;-80
2022/05/11 10:36:13;;;;;;;9.25;4.55;;;;;;;25.26;30.81;100447.13;5062387;28;20059;-88
2022/05/11 10:39:02;;;;;;;19.17;6.28;;;;;;;24.89;30.82;100459.16;5061240;28;20513;-86
2022/05/11 10:41:51;;;;;;;11.07;2.35;;;;;;;25.32;30.72;100456.66;5063991;28;20024;-94
2022/05/11 10:45:00;;;;;;;10.27;4.70;;;;;;;25.39;31.48;100456.53;5065185;28;20028;-80
2022/05/11 10:47:43;;;;;;;5.90;1.33;;;;;;;25.26;30.67;100475.09;5061348;28;20047;-93
2022/05/11 10:50:24;;;;;;;11.02;4.60;;;;;;;25.07;31.11;100482.13;5058793;28;20166;-93
2022/05/11 10:53:04;;;;;;;4.80;2.38;;;;;;;25.04;31.07;100471.78;5061925;28;20043;-84
2022/05/11 10:55:56;;;;;;;13.38;3.78;;;;;;;24.86;31.36;100471.16;5056333;28;20108;-78
2022/05/11 10:58:40;;;;;;;6.80;2.22;;;;;;;25.10;31.22;100475.69;5068888;28;20036;-84
2022/05/11 11:01:12;;;;;;;6.88;2.42;;;;;;;24.58;29.52;100473.06;5071944;28;20150;-79
2022/05/11 11:04:05;;;;;;;6.90;2.10;;;;;;;24.66;30.60;100473.00;5072376;28;20056;-82
2022/05/11 11:07:20;;;;;;;9.18;2.22;;;;;;;25.02;29.97;100471.38;5073544;28;20070;-95
2022/05/11 11:10:24;;;;;;;5.03;1.60;;;;;;;25.08;29.29;100471.72;5070505;28;20016;-85
2022/05/11 11:13:11;;;;;;;25.02;4.55;;;;;;;25.24;29.57;100471.13;5071223;28;20016;-77
2022/05/11 11:15:42;;;;;;;7.40;2.17;;;;;;;25.13;29.05;100468.47;5071428;28;20024;-79
2022/05/11 11:18:15;;;;;;;12.23;3.63;;;;;;;25.06;28.98;100480.53;5072056;28;20027;-79
2022/05/11 11:20:45;;;;;;;6.82;2.70;;;;;;;24.94;28.64;100477.44;5072533;28;20024;-92
2022/05/11 11:23:16;;;;;;;;;;;;;;;25.08;28.77;100474.50;5065882;28;20021;-92
2022/05/11 11:26:10;;;;;;;3.45;1.42;;;;;;;25.04;28.81;100473.78;5061809;28;19916;-78
2022/05/11 11:28:57;;;;;;;6.63;2.83;;;;;;;25.34;28.70;100484.19;5065935;28;20044;-94
2022/05/11 11:31:26;;;;;;;11.70;2.53;;;;;;;25.56;29.15;100477.06;5071895;28;20119;-79
2022/05/11 11:34:06;;;;;;;6.80;2.03;;;;;;;25.45;28.53;100476.41;5071754;28;20079;-87
2022/05/11 11:36:36;;;;;;;6.95;1.52;;;;;;;25.50;28.62;100475.16;5091224;28;20367;-91
2022/05/11 11:39:05;;;;;;;7.32;1.77;;;;;;;25.71;28.71;100478.47;5085609;28;20032;-83
2022/05/11 11:41:52;;;;;;;3.30;1.35;;;;;;;25.65;28.71;100477.34;5093149;28;20082;-91
2022/05/11 11:44:22;;;;;;;3.92;1.40;;;;;;;25.72;28.31;100482.84;5068473;28;20079;-86
2022/05/11 11:46:50;;;;;;;6.60;1.30;;;;;;;25.92;27.73;100473.75;5072267;28;20514;-93
2022/05/11 11:49:20;;;;;;;8.50;2.85;;;;;;;26.07;27.36;100485.50;5072131;28;20082;-80
2022/05/11 11:51:58;;;;;;;7.47;2.20;;;;;;;26.11;27.04;100475.06;5066451;28;20128;-90
2022/05/11 11:54:39;;;;;;;6.50;1.70;;;;;;;26.28;27.08;100474.72;5076322;28;20064;-85
2022/05/11 11:57:14;;;;;;;5.50;1.60;;;;;;;26.03;27.88;100490.38;5072174;28;20032;-92
2022/05/11 11:59:42;;;;;;;7.72;2.17;;;;;;;25.86;28.00;100490.25;5073039;28;20028;-83
2022/05/11 12:02:14;;;;;;;7.28;2.15;;;;;;;25.71;27.85;100480.47;5076734;28;20060;-92